createdAt,value
2022-11-21T00:03:37.785Z,22.85
2022-11-21T00:08:32.434Z,24.38
2022-11-21T00:13:26.601Z,22.98
2022-11-21T00:18:20.894Z,22.38
2022-11-21T00:23:13.480Z,20.35
2022-11-21T00:28:06.877Z,25.77
2022-11-21T00:33:00.410Z,24.42
2022-11-21T00:37:54.250Z,21.95
2022-11-21T00:42:47.595Z,19.20
2022-11-21T00:47:41.475Z,16.60
2022-11-21T00:52:35.679Z,15.93
2022-11-21T00:57:30.448Z,15.85
2022-11-21T01:02:24.119Z,18.20
2022-11-21T01:07:18.377Z,16.08
2022-11-21T01:12:12.798Z,14.32
2022-11-21T01:17:06.384Z,13.88
2022-11-21T01:22:00.273Z,14.93
2022-11-21T01:26:54.793Z,16.00
2022-11-21T01:31:48.307Z,14.57
2022-11-21T01:36:41.641Z,15.65
2022-11-21T01:41:40.416Z,17.17
2022-11-21T01:46:34.277Z,16.70
2022-11-21T01:51:32.146Z,15.52
2022-11-21T01:56:25.201Z,15.02
2022-11-21T02:01:19.040Z,13.35
2022-11-21T02:06:13.903Z,12.75
2022-11-21T02:11:29.282Z,13.93
2022-11-21T02:16:22.738Z,12.02
2022-11-21T02:21:35.888Z,13.20
2022-11-21T02:26:29.680Z,11.77
2022-11-21T02:31:23.310Z,12.68
2022-11-21T02:36:49.693Z,11.23
2022-11-21T02:42:34.529Z,11.63
2022-11-21T02:47:28.897Z,11.13
2022-11-21T02:52:22.568Z,11.10
2022-11-21T02:57:16.486Z,10.45
2022-11-21T03:02:10.824Z,9.77
2022-11-21T03:07:04.646Z,10.20
2022-11-21T03:11:58.295Z,9.35
2022-11-21T03:16:51.890Z,8.60
2022-11-21T03:21:45.870Z,7.95
2022-11-21T03:26:39.709Z,8.90
2022-11-21T03:31:33.246Z,9.07
2022-11-21T03:36:27.181Z,10.02
2022-11-21T03:41:32.348Z,8.82
2022-11-21T03:46:26.554Z,8.57
2022-11-21T03:51:20.238Z,9.45
2022-11-21T03:56:13.618Z,10.02
2022-11-21T04:01:06.868Z,9.35
2022-11-21T04:06:00.224Z,9.98
2022-11-21T04:10:54.654Z,10.95
2022-11-21T04:15:48.882Z,9.60
2022-11-21T04:20:42.570Z,10.00
2022-11-21T04:25:35.716Z,9.70
2022-11-21T04:30:31.058Z,10.15
2022-11-21T04:35:25.337Z,11.02
2022-11-21T04:40:19.108Z,9.98
2022-11-21T04:45:13.810Z,9.27
2022-11-21T04:50:09.136Z,10.80
2022-11-21T04:55:02.725Z,10.43
2022-11-21T04:59:57.072Z,9.98
2022-11-21T05:04:51.759Z,10.30
2022-11-21T05:09:45.436Z,9.25
2022-11-21T05:14:39.034Z,10.65
2022-11-21T05:19:32.900Z,9.85
2022-11-21T05:24:27.614Z,10.48
2022-11-21T05:29:27.763Z,10.73
2022-11-21T05:34:21.932Z,12.38
2022-11-21T05:39:16.474Z,11.98
2022-11-21T05:44:10.206Z,16.67
2022-11-21T05:49:04.014Z,13.95
2022-11-21T05:53:57.901Z,13.75
2022-11-21T05:58:51.828Z,13.65
2022-11-21T06:03:45.040Z,15.32
2022-11-21T06:08:44.557Z,16.05
2022-11-21T06:13:38.665Z,16.27
2022-11-21T06:18:34.903Z,14.52
2022-11-21T06:23:28.722Z,15.00
2022-11-21T06:28:21.630Z,16.55
2022-11-21T06:33:15.930Z,15.73
2022-11-21T06:38:09.350Z,15.20
2022-11-21T06:43:03.650Z,13.90
2022-11-21T06:47:56.981Z,13.18
2022-11-21T06:52:51.005Z,13.43
2022-11-21T06:57:44.431Z,13.82
2022-11-21T07:02:38.574Z,14.45
2022-11-21T07:07:32.903Z,13.02
2022-11-21T07:12:45.487Z,14.90
2022-11-21T07:17:38.938Z,11.95
2022-11-21T07:22:32.917Z,10.77
2022-11-21T07:27:27.093Z,9.77
2022-11-21T07:32:21.073Z,10.65
2022-11-21T07:37:14.421Z,9.93
2022-11-21T07:42:07.465Z,10.90
2022-11-21T07:47:03.470Z,9.48
2022-11-21T07:51:57.234Z,11.52
2022-11-21T07:56:51.533Z,9.48
2022-11-21T08:01:45.957Z,9.95
2022-11-21T08:06:40.626Z,9.30
2022-11-21T08:11:34.482Z,8.70
2022-11-21T08:16:28.910Z,20.50
2022-11-21T08:21:23.123Z,6.20
2022-11-21T08:26:17.453Z,7.45
2022-11-21T08:31:11.317Z,7.90
2022-11-21T08:36:08.413Z,7.78
2022-11-21T08:41:20.308Z,9.25
2022-11-21T08:46:14.101Z,23.20
2022-11-21T08:51:08.386Z,26.35
2022-11-21T08:56:04.411Z,11.35
2022-11-21T09:00:57.901Z,12.82
2022-11-21T09:05:51.909Z,10.82
2022-11-21T09:10:45.693Z,10.70
2022-11-21T09:15:57.853Z,12.07
2022-11-21T09:20:52.019Z,11.45
2022-11-21T09:25:47.052Z,10.88
2022-11-21T09:30:41.489Z,11.85
2022-11-21T09:35:35.709Z,12.10
2022-11-21T09:40:31.830Z,10.07
2022-11-21T09:45:35.533Z,7.93
2022-11-21T09:50:55.127Z,7.82
2022-11-21T09:55:57.938Z,9.45
2022-11-21T10:00:52.802Z,7.55
2022-11-21T10:05:50.067Z,13.77
2022-11-21T10:10:46.492Z,13.60
2022-11-21T10:15:51.252Z,11.32
2022-11-21T10:21:17.024Z,8.82
2022-11-21T10:26:18.927Z,8.70
2022-11-21T10:31:14.392Z,7.82
2022-11-21T10:36:16.537Z,7.03
2022-11-21T10:41:19.114Z,7.60
2022-11-21T10:46:12.233Z,7.10
2022-11-21T10:51:14.062Z,7.60
2022-11-21T10:56:20.493Z,8.13
2022-11-21T11:01:40.030Z,7.10
2022-11-21T11:06:38.140Z,7.35
2022-11-21T11:11:32.982Z,6.57
2022-11-21T11:16:27.160Z,6.20
2022-11-21T11:21:26.266Z,6.32
2022-11-21T11:26:41.883Z,6.57
2022-11-21T11:31:51.054Z,6.07
2022-11-21T11:37:06.047Z,6.43
2022-11-21T11:42:38.344Z,6.45
2022-11-21T11:47:50.429Z,7.13
2022-11-21T11:53:00.215Z,6.57
2022-11-21T11:57:55.669Z,7.47
2022-11-21T12:03:19.411Z,7.00
2022-11-21T12:13:33.296Z,6.57
2022-11-21T12:18:34.888Z,8.05
2022-11-21T12:23:32.530Z,6.75
2022-11-21T12:28:41.886Z,7.63
2022-11-21T12:33:39.453Z,7.03
2022-11-21T12:39:02.149Z,7.38
2022-11-21T12:44:18.445Z,7.38
2022-11-21T12:50:07.463Z,8.20
2022-11-21T12:55:12.911Z,8.15
2022-11-21T13:00:14.923Z,6.65
2022-11-21T13:05:12.025Z,8.15
2022-11-21T13:10:07.014Z,8.57
2022-11-21T13:15:41.354Z,8.20
2022-11-21T13:20:50.835Z,8.18
2022-11-21T13:25:48.082Z,7.97
2022-11-21T13:30:54.459Z,8.75
2022-11-21T13:35:50.912Z,8.13
2022-11-21T13:41:04.880Z,7.85
2022-11-21T13:45:59.782Z,9.57
2022-11-21T13:51:20.259Z,8.93
2022-11-21T14:01:49.719Z,9.48
2022-11-21T14:06:45.568Z,9.13
2022-11-21T14:11:48.989Z,9.32
2022-11-21T14:16:50.138Z,10.18
2022-11-21T14:21:47.086Z,11.35
2022-11-21T14:26:42.389Z,12.60
2022-11-21T14:31:49.629Z,12.18
2022-11-21T14:36:44.502Z,12.32
2022-11-21T14:41:40.081Z,13.98
2022-11-21T14:46:38.658Z,12.98
2022-11-21T14:51:32.741Z,14.77
2022-11-21T14:56:31.421Z,19.42
2022-11-21T15:01:28.927Z,23.37
2022-11-21T15:06:22.557Z,24.25
2022-11-21T15:11:17.034Z,24.17
2022-11-21T15:16:10.638Z,25.52
2022-11-21T15:21:05.482Z,23.60
2022-11-21T15:26:01.509Z,22.38
2022-11-21T15:31:20.627Z,22.70
2022-11-21T15:36:14.733Z,22.47
2022-11-21T15:41:10.912Z,29.23
2022-11-21T15:46:07.194Z,22.63
2022-11-21T15:51:01.744Z,20.08
2022-11-21T15:55:55.961Z,21.05
2022-11-21T16:00:49.867Z,20.95
2022-11-21T16:05:44.430Z,21.65
2022-11-21T16:10:38.198Z,23.17
2022-11-21T16:15:31.656Z,20.52
2022-11-21T16:20:25.382Z,23.88
2022-11-21T16:25:19.576Z,26.88
2022-11-21T16:30:15.529Z,24.48
2022-11-21T16:35:11.080Z,25.55
2022-11-21T16:40:07.313Z,28.85
2022-11-21T16:45:01.156Z,25.83
2022-11-21T16:49:54.785Z,28.20
2022-11-21T16:54:48.603Z,28.23
2022-11-21T16:59:42.742Z,29.75
2022-11-21T17:04:37.828Z,24.77
2022-11-21T17:09:31.531Z,27.27
2022-11-21T17:14:25.518Z,27.42
2022-11-21T17:19:19.047Z,27.65
2022-11-21T17:24:16.502Z,27.10
2022-11-21T17:29:10.837Z,27.00
2022-11-21T17:34:04.328Z,36.05
2022-11-21T17:38:58.846Z,36.42
2022-11-21T17:43:56.977Z,36.17
2022-11-21T17:48:55.567Z,37.65
2022-11-21T17:53:51.408Z,31.02
2022-11-21T17:58:45.504Z,28.40
2022-11-21T18:03:39.219Z,29.27
2022-11-21T18:08:34.137Z,26.90
2022-11-21T18:13:29.669Z,27.35
2022-11-21T18:18:23.826Z,28.42
2022-11-21T18:23:17.582Z,26.67
2022-11-21T18:28:11.566Z,25.45
2022-11-21T18:33:05.870Z,24.73
2022-11-21T18:37:59.827Z,33.45
2022-11-21T18:42:53.613Z,30.00
2022-11-21T18:47:48.331Z,28.08
2022-11-21T18:52:46.637Z,25.58
2022-11-21T18:57:41.361Z,26.10
2022-11-21T19:02:34.881Z,25.08
2022-11-21T19:07:32.857Z,27.67
2022-11-21T19:12:27.053Z,29.63
2022-11-21T19:17:21.350Z,31.83
2022-11-21T19:22:14.853Z,29.80
2022-11-21T19:27:09.201Z,32.92
2022-11-21T19:32:03.071Z,32.42
2022-11-21T19:36:57.077Z,31.23
2022-11-21T19:41:50.787Z,33.67
2022-11-21T19:46:45.033Z,32.22
2022-11-21T19:51:40.526Z,32.63
2022-11-21T19:56:35.075Z,31.38
2022-11-21T20:01:31.893Z,30.08
2022-11-21T20:06:28.789Z,32.25
2022-11-21T20:11:21.649Z,32.33
2022-11-21T20:16:31.287Z,35.08
2022-11-21T20:21:26.094Z,36.63
2022-11-21T20:26:20.821Z,35.42
2022-11-21T20:31:16.543Z,38.25
2022-11-21T20:36:12.681Z,37.40
2022-11-21T20:41:06.719Z,39.97
2022-11-21T20:46:11.810Z,39.55
2022-11-21T20:56:22.574Z,42.38
2022-11-21T21:01:18.240Z,40.55
2022-11-21T21:06:13.914Z,42.08
2022-11-21T21:11:20.770Z,42.55
2022-11-21T21:16:24.171Z,43.30
2022-11-21T21:21:20.047Z,45.20
2022-11-21T21:26:18.759Z,44.03
2022-11-21T21:31:14.524Z,47.53
2022-11-21T21:36:18.091Z,48.55
2022-11-21T21:41:13.969Z,47.60
2022-11-21T21:46:15.093Z,47.55
2022-11-21T21:51:09.838Z,51.45
2022-11-21T21:56:03.517Z,46.45
2022-11-21T22:01:05.515Z,48.15
2022-11-21T22:06:09.128Z,47.55
2022-11-21T22:11:10.294Z,47.30
2022-11-21T22:16:11.424Z,49.40
2022-11-21T22:21:28.798Z,48.05
2022-11-21T22:26:22.697Z,46.00
2022-11-21T22:31:15.501Z,47.13
2022-11-21T22:36:13.039Z,45.38
2022-11-21T22:41:20.390Z,47.40
2022-11-21T22:46:13.767Z,48.10
2022-11-21T22:51:14.202Z,45.58
2022-11-21T22:56:09.383Z,45.92
2022-11-21T23:01:07.671Z,47.28
2022-11-21T23:06:09.341Z,45.63
2022-11-21T23:11:23.741Z,44.00
2022-11-21T23:16:19.013Z,43.35
2022-11-21T23:21:13.141Z,41.08
2022-11-21T23:26:07.495Z,38.85
2022-11-21T23:31:01.314Z,40.40
2022-11-21T23:35:54.154Z,39.42
2022-11-21T23:40:48.621Z,41.67
2022-11-21T23:45:43.381Z,41.05
2022-11-21T23:50:36.804Z,38.03
2022-11-21T23:55:30.806Z,37.70
